sensor_id;sensor_type;location;lat;lon;timestamp;pressure;altitude;pressure_sealevel;temperature;humidity
23361;BME280;11852;50.082;18.554;2024-03-02T00:00:24;97907.0;;;9.28;100.0
23361;BME280;11852;50.082;18.554;2024-03-02T00:01:29;97908.0;;;9.29;100.0
23361;BME280;11852;50.082;18.554;2024-03-02T00:03:44;97910.0;;;9.31;100.0
23361;BME280;11852;50.082;18.554;2024-03-02T00:04:49;97907.0;;;9.3;100.0
23361;BME280;11852;50.082;18.554;2024-03-02T00:05:54;97910.0;;;9.29;100.0
23361;BME280;11852;50.082;18.554;2024-03-02T00:06:59;97912.0;;;9.27;100.0
23361;BME280;11852;50.082;18.554;2024-03-02T00:08:05;97906.0;;;9.25;100.0
23361;BME280;11852;50.082;18.554;2024-03-02T00:09:10;97911.0;;;9.19;100.0
23361;BME280;11852;50.082;18.554;2024-03-02T00:10:16;97908.0;;;9.22;100.0
23361;BME280;11852;50.082;18.554;2024-03-02T00:11:19;97912.0;;;9.24;100.0
23361;BME280;11852;50.082;18.554;2024-03-02T00:12:25;97906.0;;;9.24;100.0
23361;BME280;11852;50.082;18.554;2024-03-02T00:13:30;97907.0;;;9.2;100.0
23361;BME280;11852;50.082;18.554;2024-03-02T00:14:35;97905.0;;;9.22;100.0
23361;BME280;11852;50.082;18.554;2024-03-02T00:15:46;97904.0;;;9.23;100.0
23361;BME280;11852;50.082;18.554;2024-03-02T00:16:51;97903.0;;;9.22;100.0
23361;BME280;11852;50.082;18.554;2024-03-02T00:17:56;97908.0;;;9.22;100.0
23361;BME280;11852;50.082;18.554;2024-03-02T00:19:03;97904.0;;;9.22;100.0
23361;BME280;11852;50.082;18.554;2024-03-02T00:20:06;97908.0;;;9.23;100.0
23361;BME280;11852;50.082;18.554;2024-03-02T00:21:11;97904.0;;;9.22;100.0
23361;BME280;11852;50.082;18.554;2024-03-02T00:22:16;97905.0;;;9.22;100.0
23361;BME280;11852;50.082;18.554;2024-03-02T00:23:21;97907.0;;;9.23;100.0
23361;BME280;11852;50.082;18.554;2024-03-02T00:24:35;97906.0;;;9.23;100.0
23361;BME280;11852;50.082;18.554;2024-03-02T00:25:37;97903.0;;;9.23;100.0
23361;BME280;11852;50.082;18.554;2024-03-02T00:26:44;97898.0;;;9.24;100.0
23361;BME280;11852;50.082;18.554;2024-03-02T00:27:48;97902.0;;;9.24;100.0
23361;BME280;11852;50.082;18.554;2024-03-02T00:28:54;97901.0;;;9.23;100.0
23361;BME280;11852;50.082;18.554;2024-03-02T00:30:00;97905.0;;;9.23;100.0
23361;BME280;11852;50.082;18.554;2024-03-02T00:31:04;97902.0;;;9.24;100.0
23361;BME280;11852;50.082;18.554;2024-03-02T00:32:12;97904.0;;;9.24;100.0
23361;BME280;11852;50.082;18.554;2024-03-02T00:33:16;97900.0;;;9.25;100.0
23361;BME280;11852;50.082;18.554;2024-03-02T00:34:25;97901.0;;;9.23;100.0
23361;BME280;11852;50.082;18.554;2024-03-02T00:35:32;97902.0;;;9.22;100.0
23361;BME280;11852;50.082;18.554;2024-03-02T00:36:37;97903.0;;;9.23;100.0
23361;BME280;11852;50.082;18.554;2024-03-02T00:37:42;97905.0;;;9.22;100.0
23361;BME280;11852;50.082;18.554;2024-03-02T00:38:48;97901.0;;;9.22;100.0
23361;BME280;11852;50.082;18.554;2024-03-02T00:39:52;97906.0;;;9.19;100.0
23361;BME280;11852;50.082;18.554;2024-03-02T00:41:02;97902.0;;;9.21;100.0
23361;BME280;11852;50.082;18.554;2024-03-02T00:42:05;97905.0;;;9.21;100.0
23361;BME280;11852;50.082;18.554;2024-03-02T00:43:20;97901.0;;;9.18;100.0
23361;BME280;11852;50.082;18.554;2024-03-02T00:44:18;97898.0;;;9.17;100.0
23361;BME280;11852;50.082;18.554;2024-03-02T00:45:24;97897.0;;;9.15;100.0
23361;BME280;11852;50.082;18.554;2024-03-02T00:47:39;97896.0;;;9.16;100.0
23361;BME280;11852;50.082;18.554;2024-03-02T00:48:51;97896.0;;;9.15;100.0
23361;BME280;11852;50.082;18.554;2024-03-02T00:49:53;97900.0;;;9.16;100.0
23361;BME280;11852;50.082;18.554;2024-03-02T00:50:58;97902.0;;;9.16;100.0
23361;BME280;11852;50.082;18.554;2024-03-02T00:52:04;97903.0;;;9.15;100.0
23361;BME280;11852;50.082;18.554;2024-03-02T00:53:12;97902.0;;;9.11;100.0
23361;BME280;11852;50.082;18.554;2024-03-02T00:54:21;97905.0;;;9.1;100.0
23361;BME280;11852;50.082;18.554;2024-03-02T00:55:25;97901.0;;;9.1;100.0
23361;BME280;11852;50.082;18.554;2024-03-02T00:56:30;97896.0;;;9.09;100.0
23361;BME280;11852;50.082;18.554;2024-03-02T00:57:35;97899.0;;;9.07;100.0
23361;BME280;11852;50.082;18.554;2024-03-02T00:58:40;97899.0;;;9.05;100.0
23361;BME280;11852;50.082;18.554;2024-03-02T00:59:45;97897.0;;;9.04;100.0
23361;BME280;11852;50.082;18.554;2024-03-02T01:00:50;97901.0;;;8.89;100.0
23361;BME280;11852;50.082;18.554;2024-03-02T01:01:55;97900.0;;;8.95;100.0
23361;BME280;11852;50.082;18.554;2024-03-02T01:03:00;97901.0;;;8.97;100.0
23361;BME280;11852;50.082;18.554;2024-03-02T01:04:05;97900.0;;;8.99;100.0
23361;BME280;11852;50.082;18.554;2024-03-02T01:05:10;97893.0;;;9.01;100.0
23361;BME280;11852;50.082;18.554;2024-03-02T01:06:18;97896.0;;;8.97;100.0
23361;BME280;11852;50.082;18.554;2024-03-02T01:07:23;97886.0;;;8.96;100.0
23361;BME280;11852;50.082;18.554;2024-03-02T01:08:28;97890.0;;;8.95;100.0
23361;BME280;11852;50.082;18.554;2024-03-02T01:09:33;97891.0;;;8.96;100.0
23361;BME280;11852;50.082;18.554;2024-03-02T01:10:38;97886.0;;;8.89;100.0
23361;BME280;11852;50.082;18.554;2024-03-02T01:11:43;97884.0;;;8.91;100.0
23361;BME280;11852;50.082;18.554;2024-03-02T01:12:48;97881.0;;;8.9;100.0
23361;BME280;11852;50.082;18.554;2024-03-02T01:13:53;97884.0;;;8.92;100.0
23361;BME280;11852;50.082;18.554;2024-03-02T01:14:58;97885.0;;;8.86;100.0
23361;BME280;11852;50.082;18.554;2024-03-02T01:16:03;97887.0;;;8.88;100.0
23361;BME280;11852;50.082;18.554;2024-03-02T01:17:08;97886.0;;;8.88;100.0
23361;BME280;11852;50.082;18.554;2024-03-02T01:18:13;97886.0;;;8.88;100.0
23361;BME280;11852;50.082;18.554;2024-03-02T01:19:18;97878.0;;;8.8;100.0
23361;BME280;11852;50.082;18.554;2024-03-02T01:20:24;97878.0;;;8.81;100.0
23361;BME280;11852;50.082;18.554;2024-03-02T01:21:29;97878.0;;;8.82;100.0
23361;BME280;11852;50.082;18.554;2024-03-02T01:22:36;97877.0;;;8.83;100.0
23361;BME280;11852;50.082;18.554;2024-03-02T01:23:40;97877.0;;;8.83;100.0
23361;BME280;11852;50.082;18.554;2024-03-02T01:24:46;97873.0;;;8.86;100.0
23361;BME280;11852;50.082;18.554;2024-03-02T01:25:51;97868.0;;;8.86;100.0
23361;BME280;11852;50.082;18.554;2024-03-02T01:26:56;97870.0;;;8.85;100.0
23361;BME280;11852;50.082;18.554;2024-03-02T01:28:01;97872.0;;;8.85;100.0
23361;BME280;11852;50.082;18.554;2024-03-02T01:29:07;97875.0;;;8.86;100.0
23361;BME280;11852;50.082;18.554;2024-03-02T01:30:12;97878.0;;;8.85;100.0
23361;BME280;11852;50.082;18.554;2024-03-02T01:31:17;97875.0;;;8.82;100.0
23361;BME280;11852;50.082;18.554;2024-03-02T01:32:22;97875.0;;;8.81;100.0
23361;BME280;11852;50.082;18.554;2024-03-02T01:33:27;97876.0;;;8.79;100.0
23361;BME280;11852;50.082;18.554;2024-03-02T01:34:32;97874.0;;;8.8;100.0
23361;BME280;11852;50.082;18.554;2024-03-02T01:35:37;97875.0;;;8.75;100.0
23361;BME280;11852;50.082;18.554;2024-03-02T01:36:42;97876.0;;;8.75;100.0
23361;BME280;11852;50.082;18.554;2024-03-02T01:37:47;97876.0;;;8.77;100.0
23361;BME280;11852;50.082;18.554;2024-03-02T01:38:52;97873.0;;;8.74;100.0
23361;BME280;11852;50.082;18.554;2024-03-02T01:39:57;97876.0;;;8.77;100.0
23361;BME280;11852;50.082;18.554;2024-03-02T01:41:02;97873.0;;;8.77;100.0
23361;BME280;11852;50.082;18.554;2024-03-02T01:42:07;97873.0;;;8.81;100.0
23361;BME280;11852;50.082;18.554;2024-03-02T01:43:12;97873.0;;;8.82;100.0
23361;BME280;11852;50.082;18.554;2024-03-02T01:44:17;97873.0;;;8.82;100.0
23361;BME280;11852;50.082;18.554;2024-03-02T01:45:22;97871.0;;;8.83;100.0
23361;BME280;11852;50.082;18.554;2024-03-02T01:46:28;97872.0;;;8.81;100.0
23361;BME280;11852;50.082;18.554;2024-03-02T01:47:33;97870.0;;;8.75;100.0
23361;BME280;11852;50.082;18.554;2024-03-02T01:48:38;97871.0;;;8.74;100.0
23361;BME280;11852;50.082;18.554;2024-03-02T01:49:43;97870.0;;;8.69;100.0
23361;BME280;11852;50.082;18.554;2024-03-02T01:50:48;97873.0;;;8.73;100.0
23361;BME280;11852;50.082;18.554;2024-03-02T01:51:53;97873.0;;;8.72;100.0
23361;BME280;11852;50.082;18.554;2024-03-02T01:52:59;97870.0;;;8.74;100.0
23361;BME280;11852;50.082;18.554;2024-03-02T01:54:04;97870.0;;;8.76;100.0
23361;BME280;11852;50.082;18.554;2024-03-02T01:55:09;97873.0;;;8.77;100.0
23361;BME280;11852;50.082;18.554;2024-03-02T01:56:14;97874.0;;;8.76;100.0
23361;BME280;11852;50.082;18.554;2024-03-02T01:57:19;97873.0;;;8.7;100.0
23361;BME280;11852;50.082;18.554;2024-03-02T01:58:24;97866.0;;;8.71;100.0
23361;BME280;11852;50.082;18.554;2024-03-02T01:59:29;97871.0;;;8.72;100.0
23361;BME280;11852;50.082;18.554;2024-03-02T02:00:36;97870.0;;;8.72;100.0
23361;BME280;11852;50.082;18.554;2024-03-02T02:01:42;97868.0;;;8.72;100.0
23361;BME280;11852;50.082;18.554;2024-03-02T02:02:47;97865.0;;;8.72;100.0
23361;BME280;11852;50.082;18.554;2024-03-02T02:03:52;97866.0;;;8.73;100.0
23361;BME280;11852;50.082;18.554;2024-03-02T02:04:57;97867.0;;;8.74;100.0
23361;BME280;11852;50.082;18.554;2024-03-02T02:06:02;97869.0;;;8.7;100.0
23361;BME280;11852;50.082;18.554;2024-03-02T02:07:07;97867.0;;;8.7;100.0
23361;BME280;11852;50.082;18.554;2024-03-02T02:08:12;97866.0;;;8.7;100.0
23361;BME280;11852;50.082;18.554;2024-03-02T02:09:18;97870.0;;;8.69;100.0
23361;BME280;11852;50.082;18.554;2024-03-02T02:10:23;97869.0;;;8.68;100.0
23361;BME280;11852;50.082;18.554;2024-03-02T02:11:28;97871.0;;;8.69;100.0
23361;BME280;11852;50.082;18.554;2024-03-02T02:12:36;97869.0;;;8.7;100.0
23361;BME280;11852;50.082;18.554;2024-03-02T02:13:41;97871.0;;;8.7;100.0
23361;BME280;11852;50.082;18.554;2024-03-02T02:14:49;97870.0;;;8.71;100.0
23361;BME280;11852;50.082;18.554;2024-03-02T02:15:54;97868.0;;;8.7;100.0
23361;BME280;11852;50.082;18.554;2024-03-02T02:16:59;97869.0;;;8.7;100.0
23361;BME280;11852;50.082;18.554;2024-03-02T02:18:04;97869.0;;;8.71;100.0
23361;BME280;11852;50.082;18.554;2024-03-02T02:19:09;97866.0;;;8.69;100.0
23361;BME280;11852;50.082;18.554;2024-03-02T02:20:14;97867.0;;;8.62;100.0
23361;BME280;11852;50.082;18.554;2024-03-02T02:21:22;97864.0;;;8.67;100.0
23361;BME280;11852;50.082;18.554;2024-03-02T02:22:27;97866.0;;;8.68;100.0
23361;BME280;11852;50.082;18.554;2024-03-02T02:23:33;97866.0;;;8.65;100.0
23361;BME280;11852;50.082;18.554;2024-03-02T02:24:41;97864.0;;;8.67;100.0
23361;BME280;11852;50.082;18.554;2024-03-02T02:25:46;97865.0;;;8.66;100.0
23361;BME280;11852;50.082;18.554;2024-03-02T02:26:51;97864.0;;;8.67;100.0
23361;BME280;11852;50.082;18.554;2024-03-02T02:27:56;97866.0;;;8.67;100.0
23361;BME280;11852;50.082;18.554;2024-03-02T02:29:01;97866.0;;;8.67;100.0
23361;BME280;11852;50.082;18.554;2024-03-02T02:30:07;97865.0;;;8.67;100.0
23361;BME280;11852;50.082;18.554;2024-03-02T02:31:15;97868.0;;;8.67;100.0
23361;BME280;11852;50.082;18.554;2024-03-02T02:32:20;97863.0;;;8.67;100.0
23361;BME280;11852;50.082;18.554;2024-03-02T02:33:25;97863.0;;;8.64;100.0
23361;BME280;11852;50.082;18.554;2024-03-02T02:34:30;97864.0;;;8.62;100.0
23361;BME280;11852;50.082;18.554;2024-03-02T02:35:35;97858.0;;;8.58;100.0
23361;BME280;11852;50.082;18.554;2024-03-02T02:36:41;97863.0;;;8.58;100.0
23361;BME280;11852;50.082;18.554;2024-03-02T02:37:46;97864.0;;;8.6;100.0
23361;BME280;11852;50.082;18.554;2024-03-02T02:38:50;97855.0;;;8.6;100.0
23361;BME280;11852;50.082;18.554;2024-03-02T02:39:55;97862.0;;;8.6;100.0
23361;BME280;11852;50.082;18.554;2024-03-02T02:41:00;97861.0;;;8.6;100.0
23361;BME280;11852;50.082;18.554;2024-03-02T02:42:06;97861.0;;;8.6;100.0
23361;BME280;11852;50.082;18.554;2024-03-02T02:43:11;97857.0;;;8.6;100.0
23361;BME280;11852;50.082;18.554;2024-03-02T02:44:16;97860.0;;;8.6;100.0
23361;BME280;11852;50.082;18.554;2024-03-02T02:45:21;97860.0;;;8.59;100.0
23361;BME280;11852;50.082;18.554;2024-03-02T02:46:27;97862.0;;;8.6;100.0
23361;BME280;11852;50.082;18.554;2024-03-02T02:47:32;97861.0;;;8.59;100.0
23361;BME280;11852;50.082;18.554;2024-03-02T02:48:37;97863.0;;;8.6;100.0
23361;BME280;11852;50.082;18.554;2024-03-02T02:49:42;97862.0;;;8.59;100.0
23361;BME280;11852;50.082;18.554;2024-03-02T02:50:47;97860.0;;;8.6;100.0
23361;BME280;11852;50.082;18.554;2024-03-02T02:51:52;97859.0;;;8.6;100.0
23361;BME280;11852;50.082;18.554;2024-03-02T02:52:57;97859.0;;;8.61;100.0
23361;BME280;11852;50.082;18.554;2024-03-02T02:54:05;97855.0;;;8.6;100.0
23361;BME280;11852;50.082;18.554;2024-03-02T02:55:11;97858.0;;;8.6;100.0
23361;BME280;11852;50.082;18.554;2024-03-02T02:56:15;97858.0;;;8.59;100.0
23361;BME280;11852;50.082;18.554;2024-03-02T02:57:23;97858.0;;;8.59;100.0
23361;BME280;11852;50.082;18.554;2024-03-02T02:58:28;97863.0;;;8.59;100.0
23361;BME280;11852;50.082;18.554;2024-03-02T02:59:35;97857.0;;;8.58;100.0
23361;BME280;11852;50.082;18.554;2024-03-02T03:00:38;97857.0;;;8.57;100.0
23361;BME280;11852;50.082;18.554;2024-03-02T03:01:43;97857.0;;;8.58;100.0
23361;BME280;11852;50.082;18.554;2024-03-02T03:02:49;97859.0;;;8.57;100.0
23361;BME280;11852;50.082;18.554;2024-03-02T03:03:54;97862.0;;;8.55;100.0
23361;BME280;11852;50.082;18.554;2024-03-02T03:04:59;97858.0;;;8.53;100.0
23361;BME280;11852;50.082;18.554;2024-03-02T03:06:04;97859.0;;;8.53;100.0
23361;BME280;11852;50.082;18.554;2024-03-02T03:07:09;97859.0;;;8.53;100.0
23361;BME280;11852;50.082;18.554;2024-03-02T03:08:14;97866.0;;;8.53;100.0
23361;BME280;11852;50.082;18.554;2024-03-02T03:09:22;97859.0;;;8.51;100.0
23361;BME280;11852;50.082;18.554;2024-03-02T03:10:27;97861.0;;;8.51;100.0
23361;BME280;11852;50.082;18.554;2024-03-02T03:11:32;97862.0;;;8.51;100.0
23361;BME280;11852;50.082;18.554;2024-03-02T03:12:37;97863.0;;;8.51;100.0
23361;BME280;11852;50.082;18.554;2024-03-02T03:13:42;97861.0;;;8.51;100.0
23361;BME280;11852;50.082;18.554;2024-03-02T03:14:47;97863.0;;;8.51;100.0
23361;BME280;11852;50.082;18.554;2024-03-02T03:15:52;97861.0;;;8.51;100.0
23361;BME280;11852;50.082;18.554;2024-03-02T03:16:57;97863.0;;;8.51;100.0
23361;BME280;11852;50.082;18.554;2024-03-02T03:18:05;97862.0;;;8.48;100.0
23361;BME280;11852;50.082;18.554;2024-03-02T03:19:10;97864.0;;;8.48;100.0
23361;BME280;11852;50.082;18.554;2024-03-02T03:20:15;97862.0;;;8.46;100.0
23361;BME280;11852;50.082;18.554;2024-03-02T03:21:20;97862.0;;;8.45;100.0
23361;BME280;11852;50.082;18.554;2024-03-02T03:22:25;97865.0;;;8.45;100.0
23361;BME280;11852;50.082;18.554;2024-03-02T03:23:30;97864.0;;;8.45;100.0
23361;BME280;11852;50.082;18.554;2024-03-02T03:24:35;97870.0;;;8.45;100.0
23361;BME280;11852;50.082;18.554;2024-03-02T03:25:40;97871.0;;;8.44;100.0
23361;BME280;11852;50.082;18.554;2024-03-02T03:26:45;97874.0;;;8.44;100.0
23361;BME280;11852;50.082;18.554;2024-03-02T03:27:50;97875.0;;;8.45;100.0
23361;BME280;11852;50.082;18.554;2024-03-02T03:28:56;97870.0;;;8.45;100.0
23361;BME280;11852;50.082;18.554;2024-03-02T03:30:01;97870.0;;;8.45;100.0
23361;BME280;11852;50.082;18.554;2024-03-02T03:31:06;97873.0;;;8.45;100.0
23361;BME280;11852;50.082;18.554;2024-03-02T03:32:11;97875.0;;;8.35;100.0
23361;BME280;11852;50.082;18.554;2024-03-02T03:33:16;97870.0;;;8.4;100.0
23361;BME280;11852;50.082;18.554;2024-03-02T03:34:21;97872.0;;;8.43;100.0
23361;BME280;11852;50.082;18.554;2024-03-02T03:35:26;97872.0;;;8.44;100.0
23361;BME280;11852;50.082;18.554;2024-03-02T03:36:32;97866.0;;;8.44;100.0
23361;BME280;11852;50.082;18.554;2024-03-02T03:37:37;97866.0;;;8.44;100.0
23361;BME280;11852;50.082;18.554;2024-03-02T03:38:42;97867.0;;;8.43;100.0
23361;BME280;11852;50.082;18.554;2024-03-02T03:39:47;97865.0;;;8.43;100.0
23361;BME280;11852;50.082;18.554;2024-03-02T03:40:52;97869.0;;;8.42;100.0
23361;BME280;11852;50.082;18.554;2024-03-02T03:41:58;97869.0;;;8.42;100.0
23361;BME280;11852;50.082;18.554;2024-03-02T03:43:03;97869.0;;;8.43;100.0
23361;BME280;11852;50.082;18.554;2024-03-02T03:44:08;97865.0;;;8.43;100.0
23361;BME280;11852;50.082;18.554;2024-03-02T03:45:13;97872.0;;;8.43;100.0
23361;BME280;11852;50.082;18.554;2024-03-02T03:46:18;97868.0;;;8.43;100.0
23361;BME280;11852;50.082;18.554;2024-03-02T03:47:23;97864.0;;;8.39;100.0
23361;BME280;11852;50.082;18.554;2024-03-02T03:48:28;97866.0;;;8.38;100.0
23361;BME280;11852;50.082;18.554;2024-03-02T03:49:33;97872.0;;;8.32;100.0
23361;BME280;11852;50.082;18.554;2024-03-02T03:50:38;97873.0;;;8.32;100.0
23361;BME280;11852;50.082;18.554;2024-03-02T03:51:43;97868.0;;;8.34;100.0
23361;BME280;11852;50.082;18.554;2024-03-02T03:52:48;97870.0;;;8.38;100.0
23361;BME280;11852;50.082;18.554;2024-03-02T03:53:53;97870.0;;;8.38;100.0
23361;BME280;11852;50.082;18.554;2024-03-02T03:54:58;97871.0;;;8.39;100.0
23361;BME280;11852;50.082;18.554;2024-03-02T03:56:03;97869.0;;;8.39;100.0
23361;BME280;11852;50.082;18.554;2024-03-02T03:57:08;97867.0;;;8.39;100.0
23361;BME280;11852;50.082;18.554;2024-03-02T03:58:13;97866.0;;;8.39;100.0
23361;BME280;11852;50.082;18.554;2024-03-02T03:59:18;97868.0;;;8.4;100.0
23361;BME280;11852;50.082;18.554;2024-03-02T04:00:23;97871.0;;;8.38;100.0
23361;BME280;11852;50.082;18.554;2024-03-02T04:01:28;97869.0;;;8.43;100.0
23361;BME280;11852;50.082;18.554;2024-03-02T04:02:33;97868.0;;;8.42;100.0
23361;BME280;11852;50.082;18.554;2024-03-02T04:03:38;97864.0;;;8.44;100.0
23361;BME280;11852;50.082;18.554;2024-03-02T04:04:43;97867.0;;;8.48;100.0
23361;BME280;11852;50.082;18.554;2024-03-02T04:05:49;97866.0;;;8.49;100.0
23361;BME280;11852;50.082;18.554;2024-03-02T04:06:54;97874.0;;;8.51;100.0
23361;BME280;11852;50.082;18.554;2024-03-02T04:07:59;97866.0;;;8.52;100.0
23361;BME280;11852;50.082;18.554;2024-03-02T04:09:04;97865.0;;;8.53;100.0
23361;BME280;11852;50.082;18.554;2024-03-02T04:10:30;97865.0;;;8.53;100.0
23361;BME280;11852;50.082;18.554;2024-03-02T04:11:33;97865.0;;;8.53;100.0
23361;BME280;11852;50.082;18.554;2024-03-02T04:12:36;97865.0;;;8.53;100.0
23361;BME280;11852;50.082;18.554;2024-03-02T04:14:39;97865.0;;;8.53;100.0
23361;BME280;11852;50.082;18.554;2024-03-02T04:16:42;97865.0;;;8.53;100.0
23361;BME280;11852;50.082;18.554;2024-03-02T04:17:45;97865.0;;;8.53;100.0
23361;BME280;11852;50.082;18.554;2024-03-02T04:19:48;97865.0;;;8.53;100.0
23361;BME280;11852;50.082;18.554;2024-03-02T04:21:51;97865.0;;;8.53;100.0
23361;BME280;11852;50.082;18.554;2024-03-02T04:23:54;97865.0;;;8.53;100.0
23361;BME280;11852;50.082;18.554;2024-03-02T04:25:16;97865.0;;;8.53;100.0
23361;BME280;11852;50.082;18.554;2024-03-02T04:26:22;97865.0;;;8.53;100.0
23361;BME280;11852;50.082;18.554;2024-03-02T04:28:26;97865.0;;;8.53;100.0
23361;BME280;11852;50.082;18.554;2024-03-02T04:30:29;97865.0;;;8.53;100.0
23361;BME280;11852;50.082;18.554;2024-03-02T04:32:32;97865.0;;;8.53;100.0
23361;BME280;11852;50.082;18.554;2024-03-02T04:34:13;97865.0;;;8.65;100.0
23361;BME280;11852;50.082;18.554;2024-03-02T04:35:34;97859.0;;;8.65;100.0
23361;BME280;11852;50.082;18.554;2024-03-02T04:37:23;97859.0;;;8.65;100.0
23361;BME280;11852;50.082;18.554;2024-03-02T04:39:03;97859.0;;;8.65;100.0
23361;BME280;11852;50.082;18.554;2024-03-02T04:40:08;97871.0;;;8.55;100.0
23361;BME280;11852;50.082;18.554;2024-03-02T04:41:13;97870.0;;;8.52;100.0
23361;BME280;11852;50.082;18.554;2024-03-02T04:42:18;97861.0;;;8.44;100.0
23361;BME280;11852;50.082;18.554;2024-03-02T04:43:23;97862.0;;;8.49;100.0
23361;BME280;11852;50.082;18.554;2024-03-02T04:44:28;97864.0;;;8.52;100.0
23361;BME280;11852;50.082;18.554;2024-03-02T04:45:33;97864.0;;;8.52;100.0
23361;BME280;11852;50.082;18.554;2024-03-02T04:46:40;97867.0;;;8.52;100.0
23361;BME280;11852;50.082;18.554;2024-03-02T04:47:45;97871.0;;;8.52;100.0
23361;BME280;11852;50.082;18.554;2024-03-02T04:48:50;97868.0;;;8.52;100.0
23361;BME280;11852;50.082;18.554;2024-03-02T04:49:57;97874.0;;;8.53;100.0
23361;BME280;11852;50.082;18.554;2024-03-02T04:51:02;97875.0;;;8.52;100.0
23361;BME280;11852;50.082;18.554;2024-03-02T04:52:07;97875.0;;;8.51;100.0
23361;BME280;11852;50.082;18.554;2024-03-02T04:53:12;97874.0;;;8.51;100.0
23361;BME280;11852;50.082;18.554;2024-03-02T04:54:17;97874.0;;;8.5;100.0
23361;BME280;11852;50.082;18.554;2024-03-02T04:55:26;97871.0;;;8.49;100.0
23361;BME280;11852;50.082;18.554;2024-03-02T04:56:31;97873.0;;;8.5;100.0
23361;BME280;11852;50.082;18.554;2024-03-02T04:57:36;97871.0;;;8.48;100.0
23361;BME280;11852;50.082;18.554;2024-03-02T04:58:41;97876.0;;;8.49;100.0
23361;BME280;11852;50.082;18.554;2024-03-02T04:59:46;97876.0;;;8.49;100.0
23361;BME280;11852;50.082;18.554;2024-03-02T05:00:50;97880.0;;;8.48;100.0
23361;BME280;11852;50.082;18.554;2024-03-02T05:01:55;97883.0;;;8.48;100.0
23361;BME280;11852;50.082;18.554;2024-03-02T05:03:01;97883.0;;;8.48;100.0
23361;BME280;11852;50.082;18.554;2024-03-02T05:04:05;97885.0;;;8.49;100.0
23361;BME280;11852;50.082;18.554;2024-03-02T05:05:10;97887.0;;;8.48;100.0
23361;BME280;11852;50.082;18.554;2024-03-02T05:06:15;97881.0;;;8.48;100.0
23361;BME280;11852;50.082;18.554;2024-03-02T05:07:20;97886.0;;;8.47;100.0
23361;BME280;11852;50.082;18.554;2024-03-02T05:08:24;97889.0;;;8.45;100.0
23361;BME280;11852;50.082;18.554;2024-03-02T05:09:29;97886.0;;;8.43;100.0
23361;BME280;11852;50.082;18.554;2024-03-02T05:10:34;97887.0;;;8.43;100.0
23361;BME280;11852;50.082;18.554;2024-03-02T05:11:39;97887.0;;;8.46;100.0
23361;BME280;11852;50.082;18.554;2024-03-02T05:12:43;97892.0;;;8.47;100.0
23361;BME280;11852;50.082;18.554;2024-03-02T05:13:51;97884.0;;;8.46;100.0
23361;BME280;11852;50.082;18.554;2024-03-02T05:14:56;97883.0;;;8.45;100.0
23361;BME280;11852;50.082;18.554;2024-03-02T05:16:01;97883.0;;;8.45;100.0
23361;BME280;11852;50.082;18.554;2024-03-02T05:17:06;97885.0;;;8.45;100.0
23361;BME280;11852;50.082;18.554;2024-03-02T05:18:11;97884.0;;;8.45;100.0
23361;BME280;11852;50.082;18.554;2024-03-02T05:19:16;97888.0;;;8.46;100.0
23361;BME280;11852;50.082;18.554;2024-03-02T05:20:20;97885.0;;;8.45;100.0
23361;BME280;11852;50.082;18.554;2024-03-02T05:21:28;97886.0;;;8.46;100.0
23361;BME280;11852;50.082;18.554;2024-03-02T05:22:36;97887.0;;;8.4;100.0
23361;BME280;11852;50.082;18.554;2024-03-02T05:23:41;97889.0;;;8.39;100.0
23361;BME280;11852;50.082;18.554;2024-03-02T05:24:45;97889.0;;;8.4;100.0
23361;BME280;11852;50.082;18.554;2024-03-02T05:25:50;97891.0;;;8.43;100.0
23361;BME280;11852;50.082;18.554;2024-03-02T05:26:55;97890.0;;;8.43;100.0
23361;BME280;11852;50.082;18.554;2024-03-02T05:28:00;97887.0;;;8.42;100.0
23361;BME280;11852;50.082;18.554;2024-03-02T05:29:04;97884.0;;;8.42;100.0
23361;BME280;11852;50.082;18.554;2024-03-02T05:30:09;97884.0;;;8.43;100.0
23361;BME280;11852;50.082;18.554;2024-03-02T05:31:15;97885.0;;;8.43;100.0
23361;BME280;11852;50.082;18.554;2024-03-02T05:32:19;97890.0;;;8.42;100.0
23361;BME280;11852;50.082;18.554;2024-03-02T05:33:24;97891.0;;;8.41;100.0
23361;BME280;11852;50.082;18.554;2024-03-02T05:34:29;97888.0;;;8.4;100.0
23361;BME280;11852;50.082;18.554;2024-03-02T05:35:33;97892.0;;;8.39;100.0
23361;BME280;11852;50.082;18.554;2024-03-02T05:36:38;97892.0;;;8.37;100.0
23361;BME280;11852;50.082;18.554;2024-03-02T05:37:43;97896.0;;;8.38;100.0
23361;BME280;11852;50.082;18.554;2024-03-02T05:38:48;97897.0;;;8.38;100.0
23361;BME280;11852;50.082;18.554;2024-03-02T05:39:52;97899.0;;;8.37;100.0
23361;BME280;11852;50.082;18.554;2024-03-02T05:40:57;97896.0;;;8.35;100.0
23361;BME280;11852;50.082;18.554;2024-03-02T05:42:02;97897.0;;;8.34;100.0
23361;BME280;11852;50.082;18.554;2024-03-02T05:43:07;97899.0;;;8.35;100.0
23361;BME280;11852;50.082;18.554;2024-03-02T05:44:12;97904.0;;;8.35;100.0
23361;BME280;11852;50.082;18.554;2024-03-02T05:45:17;97901.0;;;8.35;100.0
23361;BME280;11852;50.082;18.554;2024-03-02T05:46:22;97907.0;;;8.35;100.0
23361;BME280;11852;50.082;18.554;2024-03-02T05:47:27;97907.0;;;8.35;100.0
23361;BME280;11852;50.082;18.554;2024-03-02T05:48:31;97909.0;;;8.35;100.0
23361;BME280;11852;50.082;18.554;2024-03-02T05:49:36;97908.0;;;8.33;100.0
23361;BME280;11852;50.082;18.554;2024-03-02T05:50:41;97912.0;;;8.31;100.0
23361;BME280;11852;50.082;18.554;2024-03-02T05:51:46;97916.0;;;8.32;100.0
23361;BME280;11852;50.082;18.554;2024-03-02T05:52:51;97913.0;;;8.32;100.0
23361;BME280;11852;50.082;18.554;2024-03-02T05:53:55;97913.0;;;8.32;100.0
23361;BME280;11852;50.082;18.554;2024-03-02T05:55:00;97909.0;;;8.32;100.0
23361;BME280;11852;50.082;18.554;2024-03-02T05:56:05;97908.0;;;8.32;100.0
23361;BME280;11852;50.082;18.554;2024-03-02T05:57:15;97909.0;;;8.33;100.0
23361;BME280;11852;50.082;18.554;2024-03-02T05:58:25;97909.0;;;8.32;100.0
23361;BME280;11852;50.082;18.554;2024-03-02T05:59:30;97914.0;;;8.31;100.0
23361;BME280;11852;50.082;18.554;2024-03-02T06:00:35;97914.0;;;8.31;100.0
23361;BME280;11852;50.082;18.554;2024-03-02T06:01:40;97913.0;;;8.3;100.0
23361;BME280;11852;50.082;18.554;2024-03-02T06:02:45;97915.0;;;8.3;100.0
23361;BME280;11852;50.082;18.554;2024-03-02T06:03:50;97917.0;;;8.26;100.0